PAVD METAR and TAF weather

Enter ICAO airport designator
Station Type Date Time Source
PAVD METAR 2019/08/22 03:56 UTC NOAA

PAVD 220356Z 25007KT 10SM FEW070 17/02 A2971 RMK AO2 SLP080 T01720017


Station Type Date Time Source
PAVD Decoded METAR 2019/08/22 03:56 UTC NOAA

Station name not available
Aug 21, 2019 - 11:56 PM EDT / 2019.08.22 0356 UTC
Wind: from the WSW (250 degrees) at 8 MPH (7 KT):0
Visibility: 10 mile(s):0
Sky conditions: mostly clear
Temperature: 63.0 F (17.2 C)
Dew Point: 35.1 F (1.7 C)
Relative Humidity: 35%
Pressure (altimeter): 29.71 in. Hg (1006 hPa)
ob: PAVD 220356Z 25007KT 10SM FEW070 17/02 A2971 RMK AO2 SLP080 T01720017
cycle: 4

Station Type Date Time Source
PAVD TAF 2019/08/21 18:40 UTC NOAA

TAF PAVD 211738Z 2118/2218 VRB03KT P6SM SKC
FM212000 24011KT P6SM SKC
FM220600 06006KT P6SM SKC
AMD LTD TO CLD VIS AND WIND

Example: see airport list